Time,TemperatureF,DewpointF,PressureIn,WindDirection,WindDirectionDegrees,WindSpeedMPH,WindSpeedGustMPH,Humidity,HourlyPrecipIn,Conditions,Clouds,dailyrainin,SolarRadiationWatts/m^2,SoftwareType,DateUTC
2013-06-29 00:00:00,56.0,54.0,-100.00,SSW,205,8.0,15.0,93,0.00,,,0.00,0.000000,,2013-06-29 07:00:00,
2013-06-29 00:33:00,56.0,54.0,-100.00,SSW,205,8.0,15.0,93,0.00,,,0.00,0.000000,,2013-06-29 07:33:00,
2013-06-29 00:43:00,56.0,54.0,-100.00,SSW,205,8.0,15.0,93,0.00,,,0.00,0.000000,,2013-06-29 07:43:00,
2013-06-29 00:53:00,56.0,54.0,-100.00,SSW,205,8.0,15.0,93,0.00,,,0.00,0.000000,,2013-06-29 07:53:00,
2013-06-29 01:00:00,58.0,57.0,-100.00,SSW,203,7.0,15.0,95,0.00,,,0.00,0.000000,,2013-06-29 08:00:00,
2013-06-29 01:22:00,58.0,57.0,-100.00,SSW,203,7.0,15.0,95,0.00,,,0.00,0.000000,,2013-06-29 08:22:00,
2013-06-29 01:33:00,58.0,57.0,-100.00,SSW,203,7.0,15.0,95,0.00,,,0.00,0.000000,,2013-06-29 08:33:00,
2013-06-29 01:43:00,58.0,57.0,-100.00,SSW,203,7.0,15.0,95,0.00,,,0.00,0.000000,,2013-06-29 08:43:00,
2013-06-29 01:52:00,58.0,57.0,-100.00,SSW,203,7.0,15.0,95,0.00,,,0.00,0.000000,,2013-06-29 08:52:00,
2013-06-29 02:00:00,57.0,56.0,-100.00,SSW,201,10.0,16.0,98,0.00,,,0.00,0.000000,,2013-06-29 09:00:00,
2013-06-29 02:22:00,57.0,56.0,-100.00,SSW,201,10.0,16.0,98,0.00,,,0.00,0.000000,,2013-06-29 09:22:00,
2013-06-29 02:33:00,57.0,56.0,-100.00,SSW,201,10.0,16.0,98,0.00,,,0.00,0.000000,,2013-06-29 09:33:00,
2013-06-29 02:42:00,57.0,56.0,-100.00,SSW,201,10.0,16.0,98,0.00,,,0.00,0.000000,,2013-06-29 09:42:00,
2013-06-29 02:53:00,57.0,56.0,-100.00,SSW,201,10.0,16.0,98,0.00,,,0.00,0.000000,,2013-06-29 09:53:00,
2013-06-29 03:00:00,58.0,56.0,-100.00,SSW,204,10.0,18.0,92,0.00,,,0.00,0.000000,,2013-06-29 10:00:00,
2013-06-29 03:33:00,58.0,56.0,-100.00,SSW,204,10.0,18.0,92,0.00,,,0.00,0.000000,,2013-06-29 10:33:00,
2013-06-29 03:43:00,58.0,56.0,-100.00,SSW,204,10.0,18.0,92,0.00,,,0.00,0.000000,,2013-06-29 10:43:00,
2013-06-29 03:53:00,58.0,56.0,-100.00,SSW,204,10.0,18.0,92,0.00,,,0.00,0.000000,,2013-06-29 10:53:00,
2013-06-29 04:00:00,56.0,56.0,-100.00,SW,214,10.0,14.0,99,0.00,,,-99.99,0.000000,,2013-06-29 11:00:00,
2013-06-29 04:23:00,56.0,56.0,-100.00,SW,214,10.0,14.0,99,0.00,,,-99.99,0.000000,,2013-06-29 11:23:00,
2013-06-29 04:33:00,56.0,56.0,-100.00,SW,214,10.0,14.0,99,0.00,,,-99.99,0.000000,,2013-06-29 11:33:00,
2013-06-29 04:43:00,56.0,56.0,-100.00,SW,214,10.0,14.0,99,0.00,,,-99.99,0.000000,,2013-06-29 11:43:00,
2013-06-29 04:53:00,56.0,56.0,-100.00,SW,214,10.0,14.0,99,0.00,,,-99.99,0.000000,,2013-06-29 11:53:00,
2013-06-29 05:00:00,55.0,55.0,-100.00,SW,219,9.0,13.0,100,0.00,,,0.00,0.000000,,2013-06-29 12:00:00,
2013-06-29 05:22:00,55.0,55.0,-100.00,SW,219,9.0,13.0,100,0.00,,,0.00,0.000000,,2013-06-29 12:22:00,
2013-06-29 05:34:00,55.0,55.0,-100.00,SW,219,9.0,13.0,100,0.00,,,0.00,0.000000,,2013-06-29 12:34:00,
2013-06-29 05:43:00,55.0,55.0,-100.00,SW,219,9.0,13.0,100,0.00,,,0.00,0.000000,,2013-06-29 12:43:00,
2013-06-29 05:53:00,55.0,55.0,-100.00,SW,219,9.0,13.0,100,0.00,,,0.00,0.000000,,2013-06-29 12:53:00,
2013-06-29 06:00:00,58.0,58.0,-100.00,SW,215,8.0,13.0,100,0.00,,,0.00,15.000000,,2013-06-29 13:00:00,
2013-06-29 06:34:00,58.0,58.0,-100.00,SW,215,8.0,13.0,100,0.00,,,0.00,15.000000,,2013-06-29 13:34:00,
2013-06-29 06:43:00,58.0,58.0,-100.00,SW,215,8.0,13.0,100,0.00,,,0.00,15.000000,,2013-06-29 13:43:00,
2013-06-29 06:53:00,58.0,58.0,-100.00,SW,215,8.0,13.0,100,0.00,,,0.00,15.000000,,2013-06-29 13:53:00,
2013-06-29 07:00:00,59.0,58.0,-100.00,SW,217,8.0,11.0,98,0.00,,,0.00,148.000000,,2013-06-29 14:00:00,
2013-06-29 07:34:00,59.0,58.0,-100.00,SW,217,8.0,11.0,98,0.00,,,0.00,148.000000,,2013-06-29 14:34:00,
2013-06-29 07:44:00,59.0,58.0,-100.00,SW,217,8.0,11.0,98,0.00,,,0.00,148.000000,,2013-06-29 14:44:00,
2013-06-29 07:53:00,59.0,58.0,-100.00,SW,217,8.0,11.0,98,0.00,,,0.00,148.000000,,2013-06-29 14:53:00,
2013-06-29 08:00:00,59.0,56.0,-100.00,SW,215,9.0,14.0,90,0.00,,,0.00,300.000000,,2013-06-29 15:00:00,
2013-06-29 08:33:00,59.0,56.0,-100.00,SW,215,9.0,14.0,90,0.00,,,0.00,300.000000,,2013-06-29 15:33:00,
2013-06-29 08:42:00,59.0,56.0,-100.00,SW,215,9.0,14.0,90,0.00,,,0.00,300.000000,,2013-06-29 15:42:00,
2013-06-29 08:53:00,59.0,56.0,-100.00,SW,215,9.0,14.0,90,0.00,,,0.00,300.000000,,2013-06-29 15:53:00,
2013-06-29 09:00:00,64.0,56.0,-100.00,SSW,196,5.0,11.0,75,0.00,,,0.00,550.000000,,2013-06-29 16:00:00,
2013-06-29 09:34:00,64.0,56.0,-100.00,SSW,196,5.0,11.0,75,0.00,,,0.00,550.000000,,2013-06-29 16:34:00,
2013-06-29 09:43:00,64.0,56.0,-100.00,SSW,196,5.0,11.0,75,0.00,,,0.00,550.000000,,2013-06-29 16:43:00,
2013-06-29 09:53:00,64.0,56.0,-100.00,SSW,196,5.0,11.0,75,0.00,,,0.00,550.000000,,2013-06-29 16:53:00,
2013-06-29 10:00:00,66.0,58.0,-100.00,SW,226,5.0,12.0,76,0.00,,,0.00,635.000000,,2013-06-29 17:00:00,
2013-06-29 10:23:00,66.0,58.0,-100.00,SW,226,5.0,12.0,76,0.00,,,0.00,635.000000,,2013-06-29 17:23:00,
2013-06-29 10:34:00,66.0,58.0,-100.00,SW,226,5.0,12.0,76,0.00,,,0.00,635.000000,,2013-06-29 17:34:00,
2013-06-29 10:42:00,66.0,58.0,-100.00,SW,226,5.0,12.0,76,0.00,,,0.00,635.000000,,2013-06-29 17:42:00,
2013-06-29 10:52:00,66.0,58.0,-100.00,SW,226,5.0,12.0,76,0.00,,,0.00,635.000000,,2013-06-29 17:52:00,
2013-06-29 11:00:00,69.0,60.0,-100.00,SW,217,6.0,12.0,74,0.00,,,0.00,828.000000,,2013-06-29 18:00:00,
2013-06-29 11:22:00,69.0,60.0,-100.00,SW,217,6.0,12.0,74,0.00,,,0.00,828.000000,,2013-06-29 18:22:00,
2013-06-29 11:34:00,69.0,60.0,-100.00,SW,217,6.0,12.0,74,0.00,,,0.00,828.000000,,2013-06-29 18:34:00,
2013-06-29 11:43:00,69.0,60.0,-100.00,SW,217,6.0,12.0,74,0.00,,,0.00,828.000000,,2013-06-29 18:43:00,
2013-06-29 11:53:00,69.0,60.0,-100.00,SW,217,6.0,12.0,74,0.00,,,0.00,828.000000,,2013-06-29 18:53:00,
2013-06-29 12:00:00,74.0,61.0,-100.00,SSW,202,7.0,13.0,65,0.00,,,0.00,952.000000,,2013-06-29 19:00:00,
2013-06-29 12:22:00,74.0,61.0,-100.00,SSW,202,7.0,13.0,65,0.00,,,0.00,952.000000,,2013-06-29 19:22:00,
2013-06-29 12:34:00,74.0,61.0,-100.00,SSW,202,7.0,13.0,65,0.00,,,0.00,952.000000,,2013-06-29 19:34:00,
2013-06-29 12:43:00,74.0,61.0,-100.00,SSW,202,7.0,13.0,65,0.00,,,0.00,952.000000,,2013-06-29 19:43:00,
2013-06-29 12:54:00,74.0,61.0,-100.00,SSW,202,7.0,13.0,65,0.00,,,0.00,952.000000,,2013-06-29 19:54:00,
2013-06-29 13:00:00,76.0,61.0,-100.00,SSW,210,5.0,13.0,59,0.00,,,0.00,1074.000000,,2013-06-29 20:00:00,
2013-06-29 13:23:00,76.0,61.0,-100.00,SSW,210,5.0,13.0,59,0.00,,,0.00,1074.000000,,2013-06-29 20:23:00,
2013-06-29 13:33:00,76.0,61.0,-100.00,SSW,210,5.0,13.0,59,0.00,,,0.00,1074.000000,,2013-06-29 20:33:00,
2013-06-29 13:43:00,76.0,61.0,-100.00,SSW,210,5.0,13.0,59,0.00,,,0.00,1074.000000,,2013-06-29 20:43:00,
2013-06-29 13:52:00,76.0,61.0,-100.00,SSW,210,5.0,13.0,59,0.00,,,0.00,1074.000000,,2013-06-29 20:52:00,
2013-06-29 14:00:00,75.0,56.0,-100.00,SSW,210,4.0,11.0,52,-99.99,,,0.00,1105.000000,,2013-06-29 21:00:00,
2013-06-29 14:22:00,75.0,56.0,-100.00,SSW,210,4.0,11.0,52,-99.99,,,0.00,1105.000000,,2013-06-29 21:22:00,
2013-06-29 14:32:00,75.0,56.0,-100.00,SSW,210,4.0,11.0,52,-99.99,,,0.00,1105.000000,,2013-06-29 21:32:00,
2013-06-29 14:42:00,75.0,56.0,-100.00,SSW,210,4.0,11.0,52,-99.99,,,0.00,1105.000000,,2013-06-29 21:42:00,
2013-06-29 14:52:00,75.0,56.0,-100.00,SSW,210,4.0,11.0,52,-99.99,,,0.00,1105.000000,,2013-06-29 21:52:00,
2013-06-29 15:00:00,78.0,57.0,-100.00,SSW,200,3.0,11.0,48,0.00,,,0.00,1078.000000,,2013-06-29 22:00:00,
2013-06-29 15:33:00,78.0,57.0,-100.00,SSW,200,3.0,11.0,48,0.00,,,0.00,1078.000000,,2013-06-29 22:33:00,
2013-06-29 15:43:00,78.0,57.0,-100.00,SSW,200,3.0,11.0,48,0.00,,,0.00,1078.000000,,2013-06-29 22:43:00,
2013-06-29 15:53:00,78.0,57.0,-100.00,SSW,200,3.0,11.0,48,0.00,,,0.00,1078.000000,,2013-06-29 22:53:00,
2013-06-29 16:00:00,75.0,57.0,-100.00,SSW,213,6.0,14.0,54,-99.99,,,0.00,976.000000,,2013-06-29 23:00:00,
2013-06-29 16:34:00,75.0,57.0,-100.00,SSW,213,6.0,14.0,54,-99.99,,,0.00,976.000000,,2013-06-29 23:34:00,
2013-06-29 16:43:00,75.0,57.0,-100.00,SSW,213,6.0,14.0,54,-99.99,,,0.00,976.000000,,2013-06-29 23:43:00,
2013-06-29 16:52:00,75.0,57.0,-100.00,SSW,213,6.0,14.0,54,-99.99,,,0.00,976.000000,,2013-06-29 23:52:00,
2013-06-29 17:00:00,73.0,59.0,-100.00,SSW,206,7.0,14.0,61,0.00,,,0.00,834.000000,,2013-06-30 00:00:00,
2013-06-29 17:22:00,73.0,59.0,-100.00,SSW,206,7.0,14.0,61,0.00,,,0.00,834.000000,,2013-06-30 00:22:00,
2013-06-29 17:33:00,73.0,59.0,-100.00,SSW,206,7.0,14.0,61,0.00,,,0.00,834.000000,,2013-06-30 00:33:00,
2013-06-29 17:43:00,73.0,59.0,-100.00,SSW,206,7.0,14.0,61,0.00,,,0.00,834.000000,,2013-06-30 00:43:00,
2013-06-29 17:52:00,73.0,59.0,-100.00,SSW,206,7.0,14.0,61,0.00,,,0.00,834.000000,,2013-06-30 00:52:00,
2013-06-29 18:00:00,66.0,55.0,-100.00,SW,219,7.0,17.0,67,0.00,,,0.00,553.000000,,2013-06-30 01:00:00,
2013-06-29 18:22:00,66.0,55.0,-100.00,SW,219,7.0,17.0,67,0.00,,,0.00,553.000000,,2013-06-30 01:22:00,
2013-06-29 18:33:00,66.0,55.0,-100.00,SW,219,7.0,17.0,67,0.00,,,0.00,553.000000,,2013-06-30 01:33:00,
2013-06-29 18:44:00,66.0,55.0,-100.00,SW,219,7.0,17.0,67,0.00,,,0.00,553.000000,,2013-06-30 01:44:00,
2013-06-29 18:53:00,66.0,55.0,-100.00,SW,219,7.0,17.0,67,0.00,,,0.00,553.000000,,2013-06-30 01:53:00,
2013-06-29 19:00:00,63.0,55.0,-100.00,SW,218,8.0,13.0,74,0.00,,,0.00,407.000000,,2013-06-30 02:00:00,
2013-06-29 19:24:00,63.0,55.0,-100.00,SW,218,8.0,13.0,74,0.00,,,0.00,407.000000,,2013-06-30 02:24:00,
2013-06-29 19:34:00,63.0,55.0,-100.00,SW,218,8.0,13.0,74,0.00,,,0.00,407.000000,,2013-06-30 02:34:00,
2013-06-29 19:43:00,63.0,55.0,-100.00,SW,218,8.0,13.0,74,0.00,,,0.00,407.000000,,2013-06-30 02:43:00,
2013-06-29 19:53:00,63.0,55.0,-100.00,SW,218,8.0,13.0,74,0.00,,,0.00,407.000000,,2013-06-30 02:53:00,
2013-06-29 20:00:00,60.0,53.0,-100.00,SW,223,5.0,11.0,79,0.00,,,0.00,33.000000,,2013-06-30 03:00:00,
2013-06-29 20:23:00,60.0,53.0,-100.00,SW,223,5.0,11.0,79,0.00,,,0.00,33.000000,,2013-06-30 03:23:00,
2013-06-29 20:34:00,60.0,53.0,-100.00,SW,223,5.0,11.0,79,0.00,,,0.00,33.000000,,2013-06-30 03:34:00,
2013-06-29 20:43:00,60.0,53.0,-100.00,SW,223,5.0,11.0,79,0.00,,,0.00,33.000000,,2013-06-30 03:43:00,
2013-06-29 20:53:00,60.0,53.0,-100.00,SW,223,5.0,11.0,79,0.00,,,0.00,33.000000,,2013-06-30 03:53:00,
2013-06-29 21:00:00,60.0,57.0,-100.00,SW,214,8.0,12.0,90,0.00,,,0.00,23.000000,,2013-06-30 04:00:00,
2013-06-29 21:22:00,60.0,57.0,-100.00,SW,214,8.0,12.0,90,0.00,,,0.00,23.000000,,2013-06-30 04:22:00,
2013-06-29 21:33:00,60.0,57.0,-100.00,SW,214,8.0,12.0,90,0.00,,,0.00,23.000000,,2013-06-30 04:33:00,
2013-06-29 21:43:00,60.0,57.0,-100.00,SW,214,8.0,12.0,90,0.00,,,0.00,23.000000,,2013-06-30 04:43:00,
2013-06-29 21:53:00,60.0,57.0,-100.00,SW,214,8.0,12.0,90,0.00,,,0.00,23.000000,,2013-06-30 04:53:00,
2013-06-29 22:00:00,58.0,55.0,-100.00,SSW,211,7.0,13.0,90,0.00,,,0.00,2.000000,,2013-06-30 05:00:00,
2013-06-29 22:22:00,58.0,55.0,-100.00,SSW,211,7.0,13.0,90,0.00,,,0.00,2.000000,,2013-06-30 05:22:00,
2013-06-29 22:34:00,58.0,55.0,-100.00,SSW,211,7.0,13.0,90,0.00,,,0.00,2.000000,,2013-06-30 05:34:00,
2013-06-29 22:43:00,58.0,55.0,-100.00,SSW,211,7.0,13.0,90,0.00,,,0.00,2.000000,,2013-06-30 05:43:00,
2013-06-29 22:53:00,58.0,55.0,-100.00,SSW,211,7.0,13.0,90,0.00,,,0.00,2.000000,,2013-06-30 05:53:00,
2013-06-29 23:00:00,58.0,53.0,-100.00,SW,215,8.0,10.0,84,0.00,,,0.00,0.000000,,2013-06-30 06:00:00,
2013-06-29 23:23:00,58.0,53.0,-100.00,SW,215,8.0,10.0,84,0.00,,,0.00,0.000000,,2013-06-30 06:23:00,
2013-06-29 23:34:00,58.0,53.0,-100.00,SW,215,8.0,10.0,84,0.00,,,0.00,0.000000,,2013-06-30 06:34:00,
2013-06-29 23:43:00,58.0,53.0,-100.00,SW,215,8.0,10.0,84,0.00,,,0.00,0.000000,,2013-06-30 06:43:00,
2013-06-29 23:53:00,58.0,53.0,-100.00,SW,215,8.0,10.0,84,0.00,,,0.00,0.000000,,2013-06-30 06:53:00,